Time;durP1;ratioP1;P1;durP2;ratioP2;P2;SDS_P1;SDS_P2;PMS_P1;PMS_P2;Temp;Humidity;BMP_temperature;BMP_pressure;BME280_temperature;BME280_humidity;BME280_pressure;Samples;Min_cycle;Max_cycle;Signal;HPM_P1;HPM_P2
2022/07/18 00:01:59;;;;;;;2.30;2.10;;;;;;;13.42;100.00;100297.13;5047313;28;20278;-78
2022/07/18 00:04:26;;;;;;;1.97;1.70;;;;;;;13.37;100.00;100294.25;5053151;28;20231;-78
2022/07/18 00:06:53;;;;;;;3.07;1.97;;;;;;;13.33;100.00;100298.44;5051477;28;20315;-78
2022/07/18 00:09:22;;;;;;;2.30;2.10;;;;;;;13.33;100.00;100301.13;5052113;28;20290;-79
2022/07/18 00:11:50;;;;;;;3.90;2.30;;;;;;;13.25;100.00;100294.16;5060469;28;20232;-79
2022/07/18 00:14:18;;;;;;;5.67;2.33;;;;;;;13.22;100.00;100297.28;5053282;28;20650;-80
2022/07/18 00:16:45;;;;;;;3.50;2.17;;;;;;;13.18;100.00;100301.47;5051255;28;20698;-78
2022/07/18 00:19:12;;;;;;;4.03;1.93;;;;;;;13.13;100.00;100288.69;5052262;28;20301;-78
2022/07/18 00:21:38;;;;;;;3.43;2.30;;;;;;;13.07;100.00;100286.81;5052203;28;20279;-79
2022/07/18 00:24:05;;;;;;;2.20;2.00;;;;;;;13.07;100.00;100292.19;5050631;28;20229;-78
2022/07/18 00:26:32;;;;;;;2.33;2.07;;;;;;;13.04;100.00;100294.50;5034530;28;20242;-79
2022/07/18 00:28:59;;;;;;;2.83;2.03;;;;;;;12.96;100.00;100287.56;5051933;28;20296;-78
2022/07/18 00:31:26;;;;;;;4.17;2.17;;;;;;;12.96;100.00;100300.19;5051691;28;20239;-76
2022/07/18 00:33:53;;;;;;;4.47;2.13;;;;;;;12.91;100.00;100297.31;5051633;28;20231;-77
2022/07/18 00:36:19;;;;;;;4.90;2.37;;;;;;;12.89;100.00;100299.38;5070949;28;20253;-79
2022/07/18 00:38:46;;;;;;;4.63;2.10;;;;;;;12.87;100.00;100299.63;5069207;28;20257;-79
2022/07/18 00:41:16;;;;;;;3.83;2.30;;;;;;;12.79;100.00;100289.94;5051628;28;20260;-77
2022/07/18 00:43:43;;;;;;;4.73;2.87;;;;;;;12.74;100.00;100294.31;5057701;28;20318;-77
2022/07/18 00:46:13;;;;;;;3.77;2.40;;;;;;;12.71;100.00;100303.66;5062312;28;20351;-77
2022/07/18 00:48:42;;;;;;;2.70;2.30;;;;;;;12.65;100.00;100290.25;5051667;28;20317;-77
2022/07/18 00:51:09;;;;;;;2.83;2.30;;;;;;;12.64;100.00;100294.00;5061282;28;20317;-76
2022/07/18 00:53:35;;;;;;;2.90;2.30;;;;;;;12.61;100.00;100302.47;5060018;28;20754;-76
2022/07/18 00:56:03;;;;;;;4.13;2.60;;;;;;;12.58;100.00;100297.53;5054287;28;20259;-77
2022/07/18 00:58:30;;;;;;;3.07;2.37;;;;;;;12.52;100.00;100299.22;5055642;28;20712;-78
2022/07/18 01:03:42;;;;;;;2.87;2.60;;;;;;;12.47;100.00;100309.78;5046509;28;21646;-77
2022/07/18 01:06:09;;;;;;;3.60;2.77;;;;;;;12.42;100.00;100304.22;5064626;28;20321;-78
2022/07/18 01:08:37;;;;;;;3.00;2.57;;;;;;;12.39;100.00;100315.44;5050375;28;20606;-79
2022/07/18 01:11:05;;;;;;;3.70;2.90;;;;;;;12.35;100.00;100312.34;5057930;28;20324;-77
2022/07/18 01:13:32;;;;;;;4.53;3.03;;;;;;;12.31;100.00;100299.56;5063826;28;20233;-78
2022/07/18 01:15:58;;;;;;;4.00;2.67;;;;;;;12.31;100.00;100308.44;5062702;28;20237;-77
2022/07/18 01:18:25;;;;;;;4.00;2.90;;;;;;;12.24;100.00;100309.50;5056089;28;20231;-77
2022/07/18 01:20:52;;;;;;;3.87;2.73;;;;;;;12.22;100.00;100307.03;5051281;28;20685;-76
2022/07/18 01:23:19;;;;;;;2.97;2.60;;;;;;;12.15;100.00;100298.19;5051291;28;20234;-78
2022/07/18 01:25:45;;;;;;;4.50;2.73;;;;;;;12.13;100.00;100300.25;5051044;28;20308;-79
2022/07/18 01:28:12;;;;;;;3.00;2.67;;;;;;;12.10;100.00;100298.00;5049659;28;20227;-78
2022/07/18 01:30:39;;;;;;;2.87;2.60;;;;;;;12.08;100.00;100304.63;5054451;28;20245;-79
2022/07/18 01:33:07;;;;;;;2.97;2.60;;;;;;;12.08;100.00;100300.09;5049987;28;20325;-79
2022/07/18 01:35:33;;;;;;;4.73;2.70;;;;;;;12.10;100.00;100300.69;5051212;28;20230;-78
2022/07/18 01:38:01;;;;;;;4.03;2.83;;;;;;;12.06;100.00;100294.09;5053790;28;20242;-79
2022/07/18 01:40:28;;;;;;;4.07;2.60;;;;;;;12.04;100.00;100292.66;5050823;28;20295;-78
2022/07/18 01:42:55;;;;;;;3.10;2.60;;;;;;;12.06;100.00;100296.78;5054211;28;20262;-77
2022/07/18 01:45:22;;;;;;;3.20;2.90;;;;;;;12.03;100.00;100299.91;5061054;28;20261;-78
2022/07/18 01:47:49;;;;;;;3.90;2.80;;;;;;;12.04;100.00;100303.41;5051016;28;20270;-77
2022/07/18 01:50:16;;;;;;;3.63;2.83;;;;;;;12.02;100.00;100298.25;5050203;28;20267;-78
2022/07/18 01:52:43;;;;;;;4.27;2.80;;;;;;;12.00;100.00;100299.47;5051304;28;20324;-78
2022/07/18 01:55:10;;;;;;;3.03;2.70;;;;;;;11.98;100.00;100301.56;5050756;28;20253;-78
2022/07/18 01:57:38;;;;;;;5.03;2.60;;;;;;;11.97;100.00;100300.72;5051211;28;20968;-77
2022/07/18 02:00:07;;;;;;;3.77;2.70;;;;;;;11.95;100.00;100296.59;5050382;28;20260;-78
2022/07/18 02:02:33;;;;;;;2.80;2.60;;;;;;;11.94;100.00;100306.53;5050851;28;20311;-79
2022/07/18 02:05:00;;;;;;;3.37;2.73;;;;;;;11.96;100.00;100311.69;5052143;28;20226;-78
2022/07/18 02:07:30;;;;;;;3.10;2.53;;;;;;;11.92;100.00;100300.53;5066397;28;20230;-79
2022/07/18 02:09:58;;;;;;;3.43;2.50;;;;;;;11.87;100.00;100301.19;5051040;28;20264;-78
2022/07/18 02:12:25;;;;;;;3.27;2.70;;;;;;;11.83;100.00;100301.81;5049685;28;20268;-77
2022/07/18 02:14:51;;;;;;;2.70;2.50;;;;;;;11.78;100.00;100305.13;5051647;28;20278;-77
2022/07/18 02:17:19;;;;;;;3.10;2.80;;;;;;;11.75;100.00;100300.19;5052576;28;20254;-78
2022/07/18 02:19:46;;;;;;;2.97;2.57;;;;;;;11.74;100.00;100303.09;5054284;28;20241;-78
2022/07/18 02:22:12;;;;;;;4.87;2.73;;;;;;;11.73;100.00;100304.94;5053682;28;20238;-78
2022/07/18 02:24:39;;;;;;;3.40;2.90;;;;;;;11.73;100.00;100306.78;5055299;28;20264;-77
2022/07/18 02:27:06;;;;;;;3.60;2.97;;;;;;;11.70;100.00;100305.34;5055532;28;20268;-78
2022/07/18 02:29:33;;;;;;;3.53;3.10;;;;;;;11.68;100.00;100309.25;5054091;28;20666;-78
2022/07/18 02:32:00;;;;;;;3.00;2.70;;;;;;;11.64;100.00;100306.16;5054180;28;20231;-79
2022/07/18 02:34:26;;;;;;;3.40;3.00;;;;;;;11.65;100.00;100307.00;5052621;28;20315;-78
2022/07/18 02:36:53;;;;;;;3.10;2.80;;;;;;;11.61;100.00;100303.09;5053982;28;20636;-78
2022/07/18 02:39:20;;;;;;;3.23;2.90;;;;;;;11.60;100.00;100298.75;5053315;28;20769;-78
2022/07/18 02:41:47;;;;;;;3.90;2.73;;;;;;;11.56;100.00;100298.34;5054108;28;20770;-77
2022/07/18 02:44:14;;;;;;;3.07;2.73;;;;;;;11.53;100.00;100303.28;5070351;28;20280;-78
2022/07/18 02:46:41;;;;;;;3.60;3.30;;;;;;;11.59;100.00;100302.47;5043093;28;20583;-77
2022/07/18 02:49:08;;;;;;;5.20;2.90;;;;;;;11.52;100.00;100301.66;5073191;28;20251;-78
2022/07/18 02:51:35;;;;;;;4.33;3.40;;;;;;;11.49;100.00;100306.41;5053343;28;20770;-78
2022/07/18 02:54:02;;;;;;;4.20;3.10;;;;;;;11.45;100.00;100301.66;5054029;28;20283;-79
2022/07/18 02:56:28;;;;;;;4.37;3.40;;;;;;;11.40;100.00;100307.66;5056064;28;20747;-78
2022/07/18 02:58:55;;;;;;;3.63;3.30;;;;;;;11.40;100.00;100309.50;5054440;28;20233;-78
2022/07/18 03:01:22;;;;;;;4.23;3.57;;;;;;;11.35;100.00;100304.78;5054646;28;20330;-81
2022/07/18 03:03:49;;;;;;;3.87;3.57;;;;;;;11.38;100.00;100307.03;5054361;28;20257;-78
2022/07/18 03:06:15;;;;;;;4.30;3.77;;;;;;;11.38;100.00;100307.03;5063355;28;20241;-79
2022/07/18 03:08:42;;;;;;;5.03;3.60;;;;;;;11.40;100.00;100304.97;5034532;28;20736;-78
2022/07/18 03:11:09;;;;;;;5.57;4.00;;;;;;;11.40;100.00;100304.16;5050120;28;20249;-78
2022/07/18 03:13:35;;;;;;;4.60;3.83;;;;;;;11.39;100.00;100303.31;5055861;28;20651;-79
2022/07/18 03:16:02;;;;;;;5.30;3.83;;;;;;;11.39;100.00;100299.81;5063014;28;20235;-79
2022/07/18 03:18:29;;;;;;;5.47;3.90;;;;;;;11.41;100.00;100306.63;5074361;28;20232;-79
2022/07/18 03:20:55;;;;;;;4.23;3.87;;;;;;;11.45;100.00;100302.50;5068471;28;20264;-79
2022/07/18 03:23:22;;;;;;;4.10;3.80;;;;;;;11.49;100.00;100311.75;5055824;28;20853;-79
2022/07/18 03:25:48;;;;;;;4.40;3.90;;;;;;;11.48;100.00;100306.59;5055738;28;20308;-78
2022/07/18 03:28:15;;;;;;;4.40;4.00;;;;;;;11.50;100.00;100309.91;5063388;28;20261;-79
2022/07/18 03:30:42;;;;;;;4.27;3.87;;;;;;;11.51;100.00;100308.06;5071358;28;20655;-79
2022/07/18 03:33:09;;;;;;;7.50;3.90;;;;;;;11.58;100.00;100315.06;5054082;28;20233;-79
2022/07/18 03:35:35;;;;;;;3.97;3.67;;;;;;;11.64;100.00;100310.72;5054276;28;20245;-79
2022/07/18 03:38:02;;;;;;;4.27;3.63;;;;;;;11.72;100.00;100311.34;5053548;28;20261;-79
2022/07/18 03:40:29;;;;;;;4.43;3.80;;;;;;;11.80;100.00;100310.31;5053743;28;20325;-79
2022/07/18 03:42:56;;;;;;;6.47;4.00;;;;;;;11.89;100.00;100309.03;5053664;28;20257;-79
2022/07/18 03:45:22;;;;;;;3.60;3.30;;;;;;;12.04;100.00;100311.47;5054098;28;20249;-79
2022/07/18 03:47:49;;;;;;;3.60;3.30;;;;;;;12.13;100.00;100313.66;5060129;28;20281;-77
2022/07/18 03:50:16;;;;;;;4.03;3.17;;;;;;;12.23;100.00;100307.84;5051896;28;20772;-78
2022/07/18 03:52:42;;;;;;;4.97;3.50;;;;;;;12.33;100.00;100309.03;5060926;28;20765;-78
2022/07/18 03:55:09;;;;;;;3.63;3.13;;;;;;;12.44;100.00;100312.09;5052463;28;20609;-78
2022/07/18 03:57:36;;;;;;;3.63;3.00;;;;;;;12.58;100.00;100310.97;5044603;28;20238;-77
2022/07/18 04:00:07;;;;;;;4.37;3.10;;;;;;;12.69;100.00;100305.72;5052431;28;20269;-78
2022/07/18 04:02:47;;;;;;;3.67;2.93;;;;;;;12.91;100.00;100313.44;5053747;28;20257;-78
2022/07/18 04:05:15;;;;;;;4.10;3.07;;;;;;;13.54;100.00;100319.56;5053060;28;20236;-78
2022/07/18 04:07:42;;;;;;;3.30;3.00;;;;;;;14.93;100.00;100323.00;5053154;28;20754;-79
2022/07/18 04:10:10;;;;;;;4.27;2.80;;;;;;;16.75;100.00;100312.69;5051497;28;20592;-78
2022/07/18 04:12:51;;;;;;;3.13;2.73;;;;;;;18.53;90.53;100314.25;5053415;28;20286;-78
2022/07/18 04:15:19;;;;;;;2.87;2.67;;;;;;;19.74;73.50;100314.47;5052898;28;20237;-78
2022/07/18 04:17:46;;;;;;;4.07;2.30;;;;;;;20.44;65.44;100315.91;5053097;28;20260;-78
2022/07/18 04:20:14;;;;;;;3.97;2.60;;;;;;;20.59;62.47;100305.06;5051629;28;20332;-79
2022/07/18 04:22:48;;;;;;;2.87;2.20;;;;;;;20.48;62.90;100309.66;5027213;28;20228;-79
2022/07/18 04:25:15;;;;;;;2.77;2.27;;;;;;;20.45;61.39;100309.38;5050396;28;20226;-79
2022/07/18 04:27:42;;;;;;;2.80;2.60;;;;;;;20.18;63.01;100304.09;5050970;28;20321;-79
2022/07/18 04:30:10;;;;;;;2.73;2.47;;;;;;;20.00;64.82;100305.38;5050755;28;20247;-78
2022/07/18 04:32:38;;;;;;;3.93;2.20;;;;;;;19.73;66.14;100300.09;5062514;28;20256;-79
2022/07/18 04:35:05;;;;;;;4.63;2.60;;;;;;;19.40;67.69;100303.09;5051126;28;20312;-78
2022/07/18 04:37:33;;;;;;;3.80;2.40;;;;;;;18.93;70.09;100305.69;5049959;28;20237;-79
2022/07/18 04:40:00;;;;;;;2.50;2.30;;;;;;;18.45;73.48;100303.81;5045520;28;20268;-79
2022/07/18 04:42:27;;;;;;;3.57;2.60;;;;;;;18.13;78.21;100309.16;5044664;28;20693;-78
2022/07/18 04:44:54;;;;;;;3.20;2.30;;;;;;;17.89;81.31;100302.34;5050674;28;20257;-78
2022/07/18 04:47:21;;;;;;;2.73;2.17;;;;;;;17.77;84.85;100304.34;5044336;28;20228;-78
2022/07/18 04:49:55;;;;;;;4.87;2.57;;;;;;;17.67;86.99;100301.50;5050054;28;20237;-78
2022/07/18 04:52:22;;;;;;;2.70;2.10;;;;;;;17.63;87.37;100294.94;5050145;28;20312;-78
2022/07/18 04:54:50;;;;;;;3.20;2.60;;;;;;;17.59;88.07;100297.31;5045042;28;20257;-79
2022/07/18 04:57:17;;;;;;;4.57;2.70;;;;;;;17.59;87.83;100294.59;5050735;28;20249;-78
2022/07/18 04:59:45;;;;;;;2.97;2.43;;;;;;;17.66;89.26;100299.84;5043557;28;20246;-78
2022/07/18 05:02:11;;;;;;;3.03;2.30;;;;;;;17.62;88.49;100299.53;5050121;28;20261;-78
2022/07/18 05:04:38;;;;;;;3.13;2.07;;;;;;;17.64;89.12;100297.38;5050239;28;20245;-80
2022/07/18 05:07:06;;;;;;;3.40;2.50;;;;;;;17.74;89.24;100299.41;5049309;28;20327;-79
2022/07/18 05:09:33;;;;;;;4.40;2.40;;;;;;;17.85;87.43;100301.19;5027469;28;20312;-79
2022/07/18 05:12:00;;;;;;;9.13;2.57;;;;;;;17.92;88.72;100307.25;5045043;28;20279;-79
2022/07/18 05:14:27;;;;;;;3.40;2.43;;;;;;;18.04;89.92;100314.22;5050112;28;20233;-78
2022/07/18 05:16:53;;;;;;;2.30;2.10;;;;;;;18.16;88.87;100314.06;5047639;28;20260;-78
2022/07/18 05:19:20;;;;;;;3.03;2.40;;;;;;;18.35;84.58;100317.28;5042368;28;20254;-78
2022/07/18 05:21:47;;;;;;;4.07;2.93;;;;;;;18.56;82.27;100310.22;5048525;28;20280;-77
2022/07/18 05:24:13;;;;;;;2.30;2.10;;;;;;;18.66;81.87;100313.03;5039776;28;20256;-79
2022/07/18 05:26:40;;;;;;;3.90;2.80;;;;;;;18.72;82.21;100312.00;5050241;28;20707;-79
2022/07/18 05:29:07;;;;;;;4.03;2.37;;;;;;;18.87;79.05;100306.72;5046170;28;20233;-79
2022/07/18 05:31:34;;;;;;;6.03;2.33;;;;;;;18.96;78.03;100312.50;5050207;28;20264;-79
2022/07/18 05:34:01;;;;;;;4.67;2.57;;;;;;;18.83;79.85;100311.84;5045471;28;20760;-78
2022/07/18 05:36:27;;;;;;;4.30;2.10;;;;;;;19.15;79.68;100311.88;5046211;28;20250;-79
2022/07/18 05:38:54;;;;;;;5.87;2.40;;;;;;;19.34;75.05;100310.38;5046048;28;20696;-79
2022/07/18 05:41:21;;;;;;;5.40;2.10;;;;;;;19.56;74.21;100312.19;5046094;28;20272;-79
2022/07/18 05:43:47;;;;;;;2.40;2.20;;;;;;;19.82;72.61;100305.84;5045811;28;20320;-80
2022/07/18 05:46:14;;;;;;;2.40;2.20;;;;;;;20.03;72.05;100304.03;5046003;28;20661;-79
2022/07/18 05:48:44;;;;;;;5.53;2.10;;;;;;;20.22;69.79;100300.56;5048656;28;20258;-80
2022/07/18 05:51:10;;;;;;;3.80;2.03;;;;;;;20.42;67.70;100296.31;5048761;28;20289;-78
2022/07/18 05:53:37;;;;;;;4.93;2.00;;;;;;;20.58;66.19;100301.50;5053053;28;20711;-79
2022/07/18 05:56:05;;;;;;;4.17;2.10;;;;;;;20.74;66.26;100298.81;5046267;28;20227;-78
2022/07/18 05:58:31;;;;;;;4.93;2.00;;;;;;;20.87;65.66;100295.56;5052088;28;20705;-79
2022/07/18 06:00:58;;;;;;;3.97;2.20;;;;;;;20.95;65.67;100295.06;5053557;28;20319;-79
2022/07/18 06:03:25;;;;;;;5.10;2.10;;;;;;;21.07;62.59;100301.84;5049455;28;20654;-79
2022/07/18 06:05:51;;;;;;;6.17;2.23;;;;;;;21.24;64.04;100295.31;5053482;28;20232;-79
2022/07/18 06:08:25;;;;;;;7.10;2.47;;;;;;;21.30;64.55;100292.34;5049111;28;20296;-79
2022/07/18 06:10:52;;;;;;;4.30;2.20;;;;;;;21.36;62.78;100291.25;5049194;28;20745;-79
2022/07/18 06:13:19;;;;;;;3.67;2.07;;;;;;;21.30;61.52;100297.78;5053550;28;20638;-79
2022/07/18 06:15:45;;;;;;;3.73;2.30;;;;;;;21.20;60.39;100300.50;5052263;28;20231;-79
2022/07/18 06:18:12;;;;;;;4.40;2.10;;;;;;;21.31;60.51;100299.44;5044863;28;20716;-79
2022/07/18 06:20:39;;;;;;;8.73;2.70;;;;;;;21.43;62.33;100296.41;5049211;28;20783;-79
2022/07/18 06:23:05;;;;;;;14.37;2.93;;;;;;;21.36;65.12;100301.34;5052464;28;20283;-79
2022/07/18 06:25:32;;;;;;;27.40;3.27;;;;;;;21.46;63.10;100301.31;5048588;28;20327;-79
2022/07/18 06:27:59;;;;;;;12.50;2.83;;;;;;;21.64;62.91;100299.91;5052103;28;20255;-79
2022/07/18 06:30:25;;;;;;;11.03;2.70;;;;;;;21.42;64.21;100295.59;5050333;28;20264;-79
2022/07/18 06:32:52;;;;;;;4.13;1.97;;;;;;;21.31;63.53;100293.97;5050331;28;20227;-79
2022/07/18 06:35:19;;;;;;;3.77;2.20;;;;;;;21.56;63.45;100295.03;5050608;28;20262;-79
2022/07/18 06:37:46;;;;;;;4.13;1.87;;;;;;;21.20;60.41;100295.06;5049962;28;20649;-79
2022/07/18 06:40:13;;;;;;;4.67;1.70;;;;;;;20.98;56.54;100289.06;5052320;28;20235;-79
2022/07/18 06:42:39;;;;;;;3.27;1.90;;;;;;;21.00;56.79;100290.41;5051356;28;20228;-79
2022/07/18 06:45:07;;;;;;;5.43;1.93;;;;;;;21.03;60.76;100295.31;5050128;28;20237;-78
2022/07/18 06:47:39;;;;;;;7.03;1.90;;;;;;;20.94;61.05;100294.22;5050166;28;20234;-79
2022/07/18 06:50:06;;;;;;;4.57;1.70;;;;;;;21.08;58.12;100291.78;5052134;28;20338;-79
2022/07/18 06:52:33;;;;;;;6.57;1.90;;;;;;;21.23;57.81;100296.44;5048793;28;20691;-79
2022/07/18 06:55:00;;;;;;;6.70;1.97;;;;;;;21.39;57.12;100296.13;5051446;28;20254;-79
2022/07/18 06:57:27;;;;;;;6.47;1.80;;;;;;;21.51;53.37;100293.94;5047098;28;20284;-79
2022/07/18 06:59:54;;;;;;;5.57;1.70;;;;;;;21.71;50.00;100294.97;5051941;28;20272;-78
2022/07/18 07:02:25;;;;;;;3.67;1.57;;;;;;;21.89;47.46;100295.19;5046530;28;20230;-79
2022/07/18 07:04:52;;;;;;;6.03;2.00;;;;;;;22.08;48.54;100289.16;5049950;28;20946;-79
2022/07/18 07:07:19;;;;;;;4.77;1.90;;;;;;;22.23;47.13;100298.09;5050542;28;20236;-79
2022/07/18 07:09:45;;;;;;;4.13;1.67;;;;;;;22.05;46.88;100290.56;5051152;28;20264;-79
2022/07/18 07:12:12;;;;;;;6.27;1.70;;;;;;;22.12;51.14;100284.78;5050552;28;20229;-79
2022/07/18 07:14:39;;;;;;;3.97;2.00;;;;;;;22.22;51.90;100284.72;5049593;28;20331;-79
2022/07/18 07:17:06;;;;;;;4.27;1.70;;;;;;;22.48;47.27;100283.50;5051643;28;20235;-79
2022/07/18 07:19:32;;;;;;;3.67;1.80;;;;;;;22.63;47.50;100279.88;5047886;28;20262;-79
2022/07/18 07:21:59;;;;;;;3.40;1.50;;;;;;;22.79;46.82;100275.94;5049243;28;20607;-79
2022/07/18 07:24:26;;;;;;;4.45;1.80;;;;;;;22.80;45.73;100270.22;5048966;28;20687;-78
2022/07/18 07:26:53;;;;;;;4.57;1.50;;;;;;;22.76;44.46;100266.44;5048647;28;20256;-79
2022/07/18 07:29:24;;;;;;;4.13;1.90;;;;;;;22.85;44.88;100266.63;5050327;28;20235;-81
2022/07/18 07:31:51;;;;;;;6.07;1.75;;;;;;;22.93;45.00;100271.47;5048030;28;20244;-78
2022/07/18 07:34:18;;;;;;;4.03;1.50;;;;;;;23.08;44.09;100276.00;5047833;28;20302;-79
2022/07/18 07:36:44;;;;;;;3.70;1.48;;;;;;;23.09;41.11;100275.72;5051873;28;21973;-78
2022/07/18 07:39:11;;;;;;;2.38;1.35;;;;;;;23.20;42.71;100270.97;5049057;28;20252;-78
2022/07/18 07:41:38;;;;;;;5.63;1.55;;;;;;;23.15;44.05;100271.00;5049211;28;20255;-78
2022/07/18 07:44:05;;;;;;;2.53;1.50;;;;;;;23.23;42.76;100268.50;5048696;28;20275;-78
2022/07/18 07:46:31;;;;;;;3.00;1.55;;;;;;;23.31;42.55;100269.78;5048212;28;20727;-78
2022/07/18 07:48:58;;;;;;;2.10;1.30;;;;;;;23.63;41.05;100266.47;5048608;28;20234;-77
2022/07/18 07:51:27;;;;;;;2.28;1.88;;;;;;;23.70;38.38;100267.75;5048153;28;20226;-78
2022/07/18 07:54:00;;;;;;;1.40;1.10;;;;;;;23.74;38.10;100267.19;5048317;28;20343;-79
2022/07/18 07:56:27;;;;;;;2.70;1.10;;;;;;;23.77;39.31;100267.41;5049121;28;20682;-78
2022/07/18 07:58:54;;;;;;;2.03;1.33;;;;;;;23.92;38.15;100267.22;5047312;28;20234;-78
2022/07/18 08:01:20;;;;;;;2.22;1.20;;;;;;;23.92;37.93;100272.72;5048261;28;20318;-78
2022/07/18 08:03:49;;;;;;;1.67;1.10;;;;;;;23.99;37.64;100277.81;5048347;28;20317;-79
2022/07/18 08:06:16;;;;;;;3.33;1.50;;;;;;;23.81;39.14;100267.63;5032878;28;20674;-79
2022/07/18 08:08:43;;;;;;;5.45;1.70;;;;;;;23.88;39.69;100271.66;5045328;28;20237;-78
2022/07/18 08:11:09;;;;;;;2.30;1.30;;;;;;;24.09;39.05;100270.28;5049410;28;20253;-78
2022/07/18 08:13:36;;;;;;;3.15;1.20;;;;;;;24.18;39.35;100270.47;5049238;28;20593;-79
2022/07/18 08:16:03;;;;;;;3.22;1.40;;;;;;;24.45;38.14;100265.16;5045147;28;20654;-80
2022/07/18 08:18:30;;;;;;;2.30;1.38;;;;;;;24.64;37.57;100258.88;5050936;28;20233;-79
2022/07/18 08:20:56;;;;;;;2.78;1.45;;;;;;;24.74;36.67;100253.25;5033208;28;20238;-78
2022/07/18 08:23:23;;;;;;;3.38;1.60;;;;;;;24.78;36.48;100260.56;5046925;28;20257;-79
2022/07/18 08:25:50;;;;;;;3.92;1.65;;;;;;;24.57;37.70;100253.78;5050755;28;20244;-79
2022/07/18 08:28:18;;;;;;;2.28;1.40;;;;;;;24.78;37.39;100265.22;5046483;28;20253;-78
2022/07/18 08:30:44;;;;;;;3.90;1.27;;;;;;;24.85;37.24;100265.69;5045824;28;20331;-78
2022/07/18 08:33:11;;;;;;;2.70;1.10;;;;;;;25.23;33.41;100261.78;5051032;28;20648;-79
2022/07/18 08:35:38;;;;;;;3.55;1.30;;;;;;;25.32;34.92;100262.72;5051036;28;20711;-79
2022/07/18 08:38:05;;;;;;;3.25;1.30;;;;;;;25.49;34.24;100262.13;5043550;28;20229;-78
2022/07/18 08:40:32;;;;;;;1.58;1.20;;;;;;;25.54;34.72;100259.31;5044034;28;20252;-79
2022/07/18 08:42:58;;;;;;;4.05;1.50;;;;;;;25.53;34.43;100262.31;5042423;28;20256;-78
2022/07/18 08:45:46;;;;;;;1.25;1.10;;;;;;;25.79;34.48;100266.25;5048644;28;20312;-78
2022/07/18 08:48:14;;;;;;;2.88;1.38;;;;;;;25.61;33.75;100257.00;5044660;28;20293;-79
2022/07/18 08:50:43;;;;;;;3.50;1.30;;;;;;;25.80;34.00;100265.13;5050164;28;20242;-79
2022/07/18 08:53:11;;;;;;;2.35;1.23;;;;;;;25.73;33.58;100260.03;5051955;28;20259;-80
2022/07/18 08:55:38;;;;;;;5.25;1.30;;;;;;;25.66;32.49;100259.63;5049370;28;20267;-79
2022/07/18 08:58:05;;;;;;;3.67;1.40;;;;;;;25.46;34.23;100254.50;5049736;28;20275;-78
2022/07/18 09:00:51;;;;;;;5.35;1.50;;;;;;;25.26;34.39;100260.34;5043365;28;20237;-79
2022/07/18 09:03:18;;;;;;;3.53;1.40;;;;;;;25.30;34.36;100261.38;5049704;28;20301;-79
2022/07/18 09:05:45;;;;;;;4.82;1.70;;;;;;;25.30;33.51;100258.63;5043459;28;20237;-78
2022/07/18 09:08:19;;;;;;;5.75;1.80;;;;;;;25.61;33.46;100257.00;5048708;28;20225;-79
2022/07/18 09:10:54;;;;;;;4.15;1.45;;;;;;;25.53;34.25;100260.38;5049145;28;20236;-78
2022/07/18 09:13:23;;;;;;;3.17;1.27;;;;;;;25.45;33.70;100258.34;5045324;28;20229;-78
2022/07/18 09:16:08;;;;;;;1.70;1.20;;;;;;;25.33;33.78;100250.63;5044179;28;20676;-79
2022/07/18 09:18:38;;;;;;;2.10;1.45;;;;;;;25.43;33.33;100247.69;5021733;28;20233;-79
2022/07/18 09:21:06;;;;;;;3.70;1.35;;;;;;;25.66;32.68;100250.59;5042563;28;20592;-79
2022/07/18 09:23:35;;;;;;;2.50;1.50;;;;;;;25.52;32.88;100247.00;5060506;28;20257;-79
2022/07/18 09:26:03;;;;;;;1.90;1.30;;;;;;;25.84;31.74;100252.41;5060803;28;20235;-78
2022/07/18 09:28:48;;;;;;;2.63;1.30;;;;;;;26.13;31.36;100246.59;5061994;28;20223;-79
2022/07/18 09:31:35;;;;;;;3.97;1.15;;;;;;;26.35;31.45;100241.19;5037033;28;20221;-77
2022/07/18 09:34:03;;;;;;;2.40;1.30;;;;;;;26.62;30.74;100237.53;5021412;28;20229;-78
2022/07/18 09:36:33;;;;;;;1.23;1.02;;;;;;;26.63;30.50;100230.91;5036686;28;20236;-79
2022/07/18 09:39:00;;;;;;;2.90;1.30;;;;;;;26.68;30.94;100234.38;5048501;28;20599;-79
2022/07/18 09:41:32;;;;;;;3.50;1.10;;;;;;;27.04;31.74;100239.81;5060994;28;20224;-80
2022/07/18 09:44:13;;;;;;;4.18;1.10;;;;;;;27.23;30.64;100238.78;5051828;28;20259;-79
2022/07/18 09:47:07;;;;;;;6.57;1.30;;;;;;;27.32;30.42;100234.16;5053775;28;20726;-78
2022/07/18 09:49:34;;;;;;;2.15;1.40;;;;;;;26.76;30.21;100227.28;5051141;28;20257;-79
2022/07/18 09:52:06;;;;;;;3.25;1.17;;;;;;;26.74;30.88;100229.53;5049449;28;20294;-78
2022/07/18 09:54:42;;;;;;;4.15;1.25;;;;;;;26.79;29.69;100234.91;5045825;28;20235;-79
2022/07/18 09:57:09;;;;;;;2.05;1.35;;;;;;;26.82;29.65;100228.00;5056562;28;20260;-79
2022/07/18 09:59:37;;;;;;;6.28;1.27;;;;;;;27.13;29.78;100226.13;5057280;28;20802;-79
2022/07/18 10:02:04;;;;;;;2.78;1.20;;;;;;;27.34;29.87;100226.41;5051096;28;20287;-78
2022/07/18 10:04:31;;;;;;;2.47;1.30;;;;;;;27.29;29.18;100221.84;5060648;28;20299;-79
2022/07/18 10:06:58;;;;;;;2.08;1.10;;;;;;;27.28;28.17;100216.66;5054098;28;20749;-79
2022/07/18 10:09:25;;;;;;;3.63;1.27;;;;;;;27.47;28.03;100214.47;5061916;28;20320;-78
2022/07/18 10:11:53;;;;;;;3.97;1.30;;;;;;;27.52;28.32;100215.19;5062567;28;20256;-78
2022/07/18 10:14:29;;;;;;;1.45;1.20;;;;;;;27.32;28.15;100212.94;5043098;28;20319;-78
2022/07/18 10:16:57;;;;;;;2.45;1.48;;;;;;;27.54;28.46;100212.91;5056947;28;20230;-78
2022/07/18 10:19:23;;;;;;;2.53;1.20;;;;;;;27.49;28.70;100213.03;5062553;28;20700;-79
2022/07/18 10:21:50;;;;;;;1.83;1.23;;;;;;;27.44;28.82;100212.34;5062666;28;20308;-78
2022/07/18 10:24:18;;;;;;;3.38;1.23;;;;;;;27.69;26.93;100211.66;5052682;28;20230;-78
2022/07/18 10:27:14;;;;;;;1.90;1.10;;;;;;;27.85;27.13;100210.13;5057337;28;20317;-78
2022/07/18 10:30:08;;;;;;;2.35;1.10;;;;;;;27.94;26.30;100201.88;5052983;28;20704;-80
2022/07/18 10:32:35;;;;;;;3.35;1.33;;;;;;;27.99;26.43;100210.78;5034992;28;20295;-79
2022/07/18 10:35:02;;;;;;;2.28;1.20;;;;;;;28.13;25.78;100204.34;5057411;28;20233;-79
2022/07/18 10:37:33;;;;;;;2.28;0.90;;;;;;;28.26;26.05;100200.63;5050545;28;20232;-79
2022/07/18 10:40:27;;;;;;;2.45;1.00;;;;;;;28.25;24.88;100194.31;5053041;28;20295;-79
2022/07/18 10:43:31;;;;;;;2.45;0.88;;;;;;;28.34;23.96;100197.06;5026032;28;20238;-79
2022/07/18 10:45:59;;;;;;;3.65;1.02;;;;;;;28.41;25.06;100191.91;5032062;28;20230;-79
2022/07/18 10:48:32;;;;;;;1.77;1.20;;;;;;;28.44;26.20;100191.22;5029994;28;20272;-79
2022/07/18 10:51:09;;;;;;;2.22;1.10;;;;;;;28.60;26.18;100188.81;5023940;28;20256;-79
2022/07/18 10:53:54;;;;;;;1.85;1.23;;;;;;;28.83;24.89;100195.78;5020110;28;20234;-78
2022/07/18 10:56:41;;;;;;;4.47;1.15;;;;;;;28.68;22.95;100186.03;5028996;28;20249;-78
2022/07/18 10:59:18;;;;;;;2.45;0.88;;;;;;;28.62;23.52;100186.50;5024280;28;20238;-80
2022/07/18 11:01:56;;;;;;;2.08;1.02;;;;;;;28.89;23.82;100183.41;5027414;28;20322;-79
2022/07/18 11:04:30;;;;;;;2.72;1.10;;;;;;;28.97;23.45;100184.56;5030129;28;20240;-79
2022/07/18 11:07:04;;;;;;;1.20;1.10;;;;;;;29.01;22.59;100168.97;5028056;28;20257;-79
2022/07/18 11:09:37;;;;;;;1.55;0.98;;;;;;;29.07;22.40;100173.19;5027963;28;20238;-80
2022/07/18 11:12:31;;;;;;;5.05;0.90;;;;;;;29.02;21.10;100163.13;5028500;28;20234;-78
2022/07/18 11:15:27;;;;;;;2.20;0.90;;;;;;;29.26;21.12;100157.81;5027651;28;20234;-79
2022/07/18 11:17:59;;;;;;;2.33;1.00;;;;;;;29.53;20.66;100162.13;5029784;28;20253;-79
2022/07/18 11:20:38;;;;;;;3.20;1.08;;;;;;;29.33;21.98;100151.84;5030975;28;20233;-79
2022/07/18 11:23:20;;;;;;;2.13;0.90;;;;;;;29.38;22.38;100154.41;5028217;28;20561;-79
2022/07/18 11:25:58;;;;;;;3.17;1.00;;;;;;;29.32;23.18;100150.19;5014800;28;20304;-80
2022/07/18 11:28:27;;;;;;;2.85;1.20;;;;;;;29.10;22.11;100151.25;5029781;28;20232;-79
2022/07/18 11:31:10;;;;;;;2.78;1.05;;;;;;;29.20;21.84;100147.31;5032646;28;20741;-79
2022/07/18 11:33:39;;;;;;;2.05;1.02;;;;;;;29.50;21.18;100137.13;5049007;28;20264;-78